Time;durP1;ratioP1;P1;durP2;ratioP2;P2;SDS_P1;SDS_P2;PMS_P1;PMS_P2;Temp;Humidity;BMP_temperature;BMP_pressure;BME280_temperature;BME280_humidity;BME280_pressure;Samples;Min_cycle;Max_cycle;Signal;HPM_P1;HPM_P2
2023/08/29 00:01:20;;;;;;;2.20;2.20;;;15.10;99.90;;;;;;4949622;28;20468;-66
2023/08/29 00:03:47;;;;;;;2.00;2.00;;;15.10;99.90;;;;;;4939954;29;20511;-67
2023/08/29 00:06:14;;;;;;;2.03;2.03;;;15.10;99.90;;;;;;4947001;28;20542;-67
2023/08/29 00:08:43;;;;;;;1.97;1.97;;;15.10;99.90;;;;;;4945589;29;20468;-66
2023/08/29 00:11:10;;;;;;;1.90;1.90;;;15.10;99.90;;;;;;4952814;29;20468;-66
2023/08/29 00:13:37;;;;;;;1.60;1.60;;;15.00;99.90;;;;;;4952250;29;20979;-66
2023/08/29 00:16:05;;;;;;;2.00;2.00;;;15.00;99.90;;;;;;4939694;28;20531;-68
2023/08/29 00:18:33;;;;;;;2.30;2.30;;;15.00;99.90;;;;;;4951434;28;20453;-66
2023/08/29 00:21:00;;;;;;;2.17;2.17;;;15.00;99.90;;;;;;4938499;29;21012;-66
2023/08/29 00:23:26;;;;;;;1.87;1.87;;;14.90;99.90;;;;;;4952569;29;20464;-68
2023/08/29 00:25:55;;;;;;;1.80;1.80;;;14.90;99.90;;;;;;4950862;29;20456;-66
2023/08/29 00:28:23;;;;;;;1.60;1.60;;;14.90;99.90;;;;;;4943896;29;20876;-67
2023/08/29 00:30:50;;;;;;;2.20;2.20;;;14.90;99.90;;;;;;4948044;28;20962;-67
2023/08/29 00:33:17;;;;;;;2.00;2.00;;;14.90;99.90;;;;;;4951637;28;20551;-67
2023/08/29 00:35:44;;;;;;;1.77;1.77;;;14.90;99.90;;;;;;4952165;29;20468;-67
2023/08/29 00:38:13;;;;;;;1.80;1.80;;;14.90;99.90;;;;;;4948116;29;20472;-66
2023/08/29 00:40:40;;;;;;;1.63;1.63;;;14.90;99.90;;;;;;4943733;29;20472;-66
2023/08/29 00:43:08;;;;;;;2.00;2.00;;;14.90;99.90;;;;;;4952110;29;20495;-67
2023/08/29 00:45:37;;;;;;;2.13;2.13;;;14.80;99.90;;;;;;4944827;29;20472;-67
2023/08/29 00:48:05;;;;;;;1.70;1.70;;;14.70;99.90;;;;;;4941426;29;20472;-65
2023/08/29 00:50:32;;;;;;;2.13;2.13;;;14.70;99.90;;;;;;4940564;29;20500;-67
2023/08/29 00:53:01;;;;;;;2.00;2.00;;;14.70;99.90;;;;;;4947236;28;20487;-67
2023/08/29 00:55:30;;;;;;;1.80;1.80;;;14.70;99.90;;;;;;4971198;28;20981;-68
2023/08/29 00:57:59;;;;;;;2.00;2.00;;;14.60;99.90;;;;;;4967377;28;20568;-67
2023/08/29 01:00:29;;;;;;;2.10;2.10;;;14.60;99.90;;;;;;4974327;28;20454;-68
2023/08/29 01:02:56;;;;;;;2.03;2.03;;;14.50;99.90;;;;;;4966216;28;20463;-66
2023/08/29 01:05:23;;;;;;;2.30;2.30;;;14.50;99.90;;;;;;4958124;28;20464;-67
2023/08/29 01:07:52;;;;;;;2.57;2.57;;;14.40;99.90;;;;;;4961529;28;20963;-66
2023/08/29 01:10:23;;;;;;;2.60;2.60;;;14.40;99.90;;;;;;4970857;28;20462;-66
2023/08/29 01:12:57;;;;;;;2.80;2.80;;;14.30;99.90;;;;;;4970659;28;20492;-66
2023/08/29 01:15:30;;;;;;;2.50;2.50;;;14.30;99.90;;;;;;4968903;28;20474;-66
2023/08/29 01:18:01;;;;;;;2.40;2.40;;;14.20;99.90;;;;;;4966563;28;20955;-67
2023/08/29 01:20:31;;;;;;;2.77;2.77;;;14.10;99.90;;;;;;4959269;28;20499;-67
2023/08/29 01:23:08;;;;;;;2.77;2.77;;;13.90;99.90;;;;;;4964919;28;20542;-67
2023/08/29 01:25:44;;;;;;;3.47;3.47;;;14.00;99.90;;;;;;4967599;28;20455;-67
2023/08/29 01:28:12;;;;;;;3.50;3.50;;;14.00;99.90;;;;;;4970414;28;20484;-66
2023/08/29 01:30:42;;;;;;;3.10;3.10;;;14.10;99.90;;;;;;4975321;28;20462;-67
2023/08/29 01:33:09;;;;;;;2.43;2.43;;;14.20;99.90;;;;;;4969280;28;20479;-67
2023/08/29 01:35:42;;;;;;;2.40;2.40;;;14.20;99.90;;;;;;4967519;28;20464;-67
2023/08/29 01:38:09;;;;;;;2.17;2.17;;;14.10;99.90;;;;;;4959608;28;20861;-67
2023/08/29 01:40:37;;;;;;;2.10;2.10;;;14.10;99.90;;;;;;4962473;28;20499;-66
2023/08/29 01:43:04;;;;;;;2.43;2.43;;;14.00;99.90;;;;;;4970353;28;20550;-67
2023/08/29 01:45:32;;;;;;;2.93;2.93;;;14.00;99.90;;;;;;4967484;28;20523;-67
2023/08/29 01:47:59;;;;;;;2.27;2.27;;;14.00;99.90;;;;;;4962739;28;20467;-67
2023/08/29 01:50:27;;;;;;;2.43;2.43;;;14.00;99.90;;;;;;4960984;28;20475;-67
2023/08/29 01:52:54;;;;;;;1.80;1.80;;;13.90;99.90;;;;;;4969146;28;20514;-67
2023/08/29 01:55:23;;;;;;;2.20;2.20;;;13.90;99.90;;;;;;4951011;29;20477;-67
2023/08/29 01:57:52;;;;;;;1.87;1.87;;;14.00;99.90;;;;;;4947840;29;20473;-67
2023/08/29 02:00:20;;;;;;;2.20;2.20;;;13.90;99.90;;;;;;4945897;28;20548;-66
2023/08/29 02:02:49;;;;;;;2.50;2.50;;;13.90;99.90;;;;;;4948086;29;20476;-67
2023/08/29 02:05:17;;;;;;;2.30;2.30;;;13.90;99.90;;;;;;4950821;29;20869;-66
2023/08/29 02:07:44;;;;;;;2.70;2.70;;;13.90;99.90;;;;;;4947880;29;21006;-67
2023/08/29 02:10:11;;;;;;;2.70;2.70;;;13.80;99.90;;;;;;4942472;29;21019;-68
2023/08/29 02:12:38;;;;;;;2.73;2.73;;;14.00;99.90;;;;;;4950399;29;20493;-67
2023/08/29 02:15:06;;;;;;;3.30;3.30;;;14.00;99.90;;;;;;4948578;29;20473;-67
2023/08/29 02:17:34;;;;;;;2.30;2.30;;;14.10;99.90;;;;;;4950533;29;20463;-67
2023/08/29 02:20:03;;;;;;;2.33;2.33;;;14.10;99.90;;;;;;4946344;29;20496;-67
2023/08/29 02:22:31;;;;;;;2.50;2.50;;;14.10;99.90;;;;;;4945992;29;20471;-67
2023/08/29 02:25:00;;;;;;;2.40;2.40;;;14.10;99.90;;;;;;4950333;29;20527;-67
2023/08/29 02:27:27;;;;;;;2.53;2.53;;;14.10;99.90;;;;;;4933322;29;20472;-67
2023/08/29 02:29:55;;;;;;;2.50;2.50;;;14.10;99.90;;;;;;4949324;28;20468;-67
2023/08/29 02:32:21;;;;;;;2.40;2.40;;;14.00;99.90;;;;;;4961436;28;20458;-67
2023/08/29 02:34:49;;;;;;;2.27;2.27;;;14.00;99.90;;;;;;4950184;29;20504;-66
2023/08/29 02:37:19;;;;;;;2.47;2.47;;;13.90;99.90;;;;;;4943303;29;20879;-66
2023/08/29 02:39:45;;;;;;;2.70;2.70;;;13.90;99.90;;;;;;4949985;29;20487;-67
2023/08/29 02:42:13;;;;;;;2.70;2.70;;;13.90;99.90;;;;;;4952913;28;20516;-67
2023/08/29 02:44:39;;;;;;;3.13;3.13;;;13.90;99.90;;;;;;4948431;29;20460;-67
2023/08/29 02:47:06;;;;;;;3.03;3.03;;;13.90;99.90;;;;;;4944532;29;20476;-67
2023/08/29 02:49:33;;;;;;;2.90;2.90;;;13.90;99.90;;;;;;4942816;29;20479;-67
2023/08/29 02:52:00;;;;;;;3.13;3.13;;;13.90;99.90;;;;;;4950159;29;20464;-67
2023/08/29 02:54:30;;;;;;;2.93;2.93;;;13.90;99.90;;;;;;4948241;28;20901;-67
2023/08/29 02:56:56;;;;;;;3.13;3.13;;;13.80;99.90;;;;;;4950276;29;20465;-67
2023/08/29 02:59:26;;;;;;;3.13;3.13;;;13.80;99.90;;;;;;4947134;29;20998;-67
2023/08/29 03:01:52;;;;;;;3.50;3.50;;;13.70;99.90;;;;;;4948574;28;21030;-67
2023/08/29 03:04:20;;;;;;;3.10;3.10;;;13.70;99.90;;;;;;4944320;28;20956;-67
2023/08/29 03:06:47;;;;;;;3.23;3.23;;;13.70;99.90;;;;;;4939442;28;20580;-68
2023/08/29 03:09:13;;;;;;;3.80;3.80;;;13.70;99.90;;;;;;4950217;29;20866;-67
2023/08/29 03:11:41;;;;;;;2.97;2.97;;;13.70;99.90;;;;;;4950285;29;20464;-66
2023/08/29 03:14:10;;;;;;;2.80;2.80;;;13.70;99.90;;;;;;4950060;29;20508;-66
2023/08/29 03:16:37;;;;;;;2.87;2.87;;;13.70;99.90;;;;;;4941666;28;20472;-68
2023/08/29 03:19:04;;;;;;;2.93;2.93;;;13.60;99.90;;;;;;4950003;29;20463;-67
2023/08/29 03:21:31;;;;;;;2.97;2.97;;;13.60;99.90;;;;;;4949830;29;20489;-68
2023/08/29 03:23:58;;;;;;;3.40;3.40;;;13.60;99.90;;;;;;4944236;28;20474;-67
2023/08/29 03:26:25;;;;;;;3.37;3.37;;;13.50;99.90;;;;;;4949655;29;20464;-68
2023/08/29 03:28:53;;;;;;;3.63;3.63;;;13.50;99.90;;;;;;4949672;29;20823;-67
2023/08/29 03:31:20;;;;;;;3.80;3.80;;;13.50;99.90;;;;;;4950937;28;20469;-67
2023/08/29 03:33:48;;;;;;;3.67;3.67;;;13.50;99.90;;;;;;4942545;28;20571;-67
2023/08/29 03:36:15;;;;;;;4.30;4.30;;;13.50;99.90;;;;;;4949995;29;20498;-66
2023/08/29 03:38:43;;;;;;;3.90;3.90;;;13.50;99.90;;;;;;4948585;29;20547;-68
2023/08/29 03:41:11;;;;;;;3.50;3.50;;;13.50;99.90;;;;;;4949806;28;20464;-68
2023/08/29 03:43:39;;;;;;;3.77;3.77;;;13.50;99.90;;;;;;4945109;28;20476;-67
2023/08/29 03:46:08;;;;;;;3.57;3.57;;;13.60;99.90;;;;;;4953113;29;20516;-67
2023/08/29 03:48:35;;;;;;;3.87;3.87;;;13.60;99.90;;;;;;4952797;29;20792;-67
2023/08/29 03:51:05;;;;;;;3.67;3.67;;;13.60;99.90;;;;;;4949033;28;20476;-68
2023/08/29 03:53:33;;;;;;;3.63;3.63;;;13.60;99.90;;;;;;4947426;28;20506;-67
2023/08/29 03:56:00;;;;;;;3.57;3.57;;;13.60;99.90;;;;;;4967107;28;20455;-68
2023/08/29 03:58:27;;;;;;;4.10;4.10;;;13.60;99.90;;;;;;4969642;28;20582;-67
2023/08/29 04:00:56;;;;;;;3.70;3.70;;;13.70;99.90;;;;;;4971603;28;20445;-67
2023/08/29 04:03:24;;;;;;;3.33;3.33;;;13.70;99.90;;;;;;4975855;28;20467;-66
2023/08/29 04:05:51;;;;;;;3.30;3.30;;;13.70;99.90;;;;;;4968596;28;20498;-67
2023/08/29 04:08:18;;;;;;;3.73;3.73;;;13.70;99.90;;;;;;4961063;28;20500;-68
2023/08/29 04:10:47;;;;;;;3.30;3.30;;;13.70;99.90;;;;;;4964023;28;21138;-67
2023/08/29 04:13:14;;;;;;;3.30;3.30;;;13.60;99.90;;;;;;4970109;28;20452;-66
2023/08/29 04:15:41;;;;;;;3.37;3.37;;;13.70;99.90;;;;;;4971892;28;20930;-67
2023/08/29 04:18:09;;;;;;;3.17;3.17;;;13.70;99.90;;;;;;4970224;28;20471;-67
2023/08/29 04:20:37;;;;;;;3.00;3.00;;;13.60;99.90;;;;;;4967490;28;20861;-66
2023/08/29 04:23:05;;;;;;;3.33;3.33;;;13.50;99.90;;;;;;4959382;28;20471;-68
2023/08/29 04:25:35;;;;;;;4.03;4.03;;;13.50;99.90;;;;;;4971343;28;20459;-68
2023/08/29 04:28:01;;;;;;;3.60;3.60;;;13.50;99.90;;;;;;4971533;28;20478;-66
2023/08/29 04:30:29;;;;;;;4.17;4.17;;;13.50;99.90;;;;;;4975037;28;20459;-67
2023/08/29 04:32:56;;;;;;;3.90;3.90;;;13.50;99.90;;;;;;4958561;28;21076;-67
2023/08/29 04:35:23;;;;;;;3.60;3.60;;;13.50;99.90;;;;;;4959879;28;20574;-68
2023/08/29 04:37:52;;;;;;;3.40;3.40;;;13.40;99.90;;;;;;4971590;28;20491;-67
2023/08/29 04:40:21;;;;;;;4.20;4.20;;;13.40;99.90;;;;;;4964481;28;20988;-66
2023/08/29 04:42:48;;;;;;;4.03;4.03;;;13.40;99.90;;;;;;4969728;28;20970;-67
2023/08/29 04:45:15;;;;;;;3.90;3.90;;;13.40;99.90;;;;;;4964426;28;20862;-68
2023/08/29 04:47:42;;;;;;;3.80;3.80;;;13.30;99.90;;;;;;4967554;28;20472;-67
2023/08/29 04:50:10;;;;;;;3.80;3.80;;;13.30;99.90;;;;;;4965629;28;20480;-68
2023/08/29 04:52:36;;;;;;;4.17;4.17;;;13.30;99.90;;;;;;4966207;28;20463;-67
2023/08/29 04:55:06;;;;;;;4.43;4.43;;;13.30;99.90;;;;;;4970552;28;20514;-68
2023/08/29 04:57:35;;;;;;;4.60;4.60;;;13.40;99.90;;;;;;4971779;28;20903;-67
2023/08/29 05:00:02;;;;;;;4.03;4.03;;;13.40;99.90;;;;;;4968450;28;20910;-66
2023/08/29 05:02:28;;;;;;;4.40;4.40;;;13.40;99.90;;;;;;4956382;28;20476;-69
2023/08/29 05:04:57;;;;;;;4.30;4.30;;;13.40;99.90;;;;;;4959902;28;20522;-66
2023/08/29 05:07:24;;;;;;;4.20;4.20;;;13.50;99.90;;;;;;4966844;28;20467;-67
2023/08/29 05:09:52;;;;;;;3.97;3.97;;;13.50;99.90;;;;;;4967561;28;20905;-68
2023/08/29 05:12:20;;;;;;;4.53;4.53;;;13.50;99.90;;;;;;4965053;28;20959;-67
2023/08/29 05:14:48;;;;;;;4.20;4.20;;;13.60;99.90;;;;;;4954308;28;20790;-67
2023/08/29 05:17:16;;;;;;;4.00;4.00;;;13.60;99.90;;;;;;4967763;28;20443;-68
2023/08/29 05:19:43;;;;;;;3.90;3.90;;;13.60;99.90;;;;;;4966762;28;20981;-67
2023/08/29 05:22:11;;;;;;;4.60;4.60;;;13.50;99.90;;;;;;4963536;28;20463;-67
2023/08/29 05:24:38;;;;;;;4.20;4.20;;;13.60;99.90;;;;;;4968740;28;20912;-67
2023/08/29 05:27:06;;;;;;;4.53;4.53;;;13.60;99.90;;;;;;4966547;28;20845;-66
2023/08/29 05:29:35;;;;;;;4.80;4.80;;;13.60;99.90;;;;;;4963642;28;20511;-67
2023/08/29 05:32:02;;;;;;;4.90;4.90;;;13.70;99.90;;;;;;4957639;28;20464;-67
2023/08/29 05:34:29;;;;;;;4.40;4.40;;;13.70;99.90;;;;;;4964074;28;20503;-66
2023/08/29 05:36:57;;;;;;;4.70;4.70;;;13.80;99.90;;;;;;4969762;28;20455;-68
2023/08/29 05:39:24;;;;;;;4.80;4.80;;;13.90;99.90;;;;;;4967011;28;20503;-67
2023/08/29 05:41:51;;;;;;;4.77;4.77;;;13.90;99.90;;;;;;4969906;28;20482;-67
2023/08/29 05:44:18;;;;;;;4.00;4.00;;;13.90;99.90;;;;;;4968135;28;20602;-68
2023/08/29 05:46:47;;;;;;;4.43;4.43;;;13.90;99.90;;;;;;4956582;28;20463;-67
2023/08/29 05:49:13;;;;;;;4.03;4.03;;;13.90;99.90;;;;;;4964283;28;20471;-67
2023/08/29 05:51:40;;;;;;;4.30;4.30;;;13.90;99.90;;;;;;4960158;28;20994;-67
2023/08/29 05:54:07;;;;;;;5.07;4.97;;;14.00;99.90;;;;;;4957601;28;20504;-67
2023/08/29 05:56:34;;;;;;;3.83;3.83;;;14.00;99.90;;;;;;4941352;29;20468;-67
2023/08/29 05:59:02;;;;;;;3.40;3.40;;;14.00;99.90;;;;;;4940724;29;20467;-67
2023/08/29 06:01:31;;;;;;;3.60;3.60;;;14.00;99.90;;;;;;4947677;29;20552;-66
2023/08/29 06:04:00;;;;;;;4.00;4.00;;;14.00;99.90;;;;;;4945626;29;20884;-67
2023/08/29 06:06:27;;;;;;;3.73;3.73;;;14.10;99.90;;;;;;4945688;29;20464;-67
2023/08/29 06:08:54;;;;;;;3.60;3.60;;;14.20;99.90;;;;;;4947607;29;20460;-67
2023/08/29 06:11:20;;;;;;;4.13;4.13;;;14.20;99.90;;;;;;4939653;29;20507;-66
2023/08/29 06:13:47;;;;;;;3.20;3.20;;;14.20;99.90;;;;;;4945760;29;20896;-66
2023/08/29 06:16:15;;;;;;;3.73;3.73;;;14.20;99.90;;;;;;4954031;28;20854;-67
2023/08/29 06:18:43;;;;;;;3.10;3.10;;;14.30;99.90;;;;;;4950091;29;20531;-66
2023/08/29 06:21:12;;;;;;;3.37;3.37;;;14.30;99.90;;;;;;4944850;29;20499;-67
2023/08/29 06:23:38;;;;;;;4.00;4.00;;;14.30;99.90;;;;;;4942241;29;20965;-66
2023/08/29 06:26:05;;;;;;;3.30;3.30;;;14.40;99.90;;;;;;4943874;29;20496;-67
2023/08/29 06:28:33;;;;;;;3.50;3.50;;;14.50;99.90;;;;;;4949278;29;20452;-67
2023/08/29 06:31:05;;;;;;;3.03;3.03;;;14.50;99.90;;;;;;4948904;29;20897;-68
2023/08/29 06:33:32;;;;;;;2.80;2.80;;;14.50;99.90;;;;;;4948796;29;20456;-67
2023/08/29 06:35:59;;;;;;;2.90;2.90;;;14.60;99.90;;;;;;4943581;29;20527;-66
2023/08/29 06:38:28;;;;;;;2.50;2.50;;;14.70;99.90;;;;;;4944861;29;20456;-68
2023/08/29 06:40:55;;;;;;;2.97;2.97;;;14.80;99.90;;;;;;4942997;29;20831;-68
2023/08/29 06:43:23;;;;;;;2.67;2.67;;;14.80;99.90;;;;;;4943318;29;20539;-68
2023/08/29 06:45:49;;;;;;;3.20;3.20;;;14.90;99.90;;;;;;4940216;28;20460;-68
2023/08/29 06:48:16;;;;;;;2.10;2.10;;;14.90;99.90;;;;;;4943501;29;20481;-68
2023/08/29 06:50:43;;;;;;;2.20;2.20;;;15.00;99.90;;;;;;4940387;29;21032;-67
2023/08/29 06:53:10;;;;;;;2.63;2.63;;;15.00;99.90;;;;;;4951494;28;20468;-68
2023/08/29 06:55:39;;;;;;;2.20;2.20;;;15.10;99.90;;;;;;4960605;28;20495;-67
2023/08/29 06:58:07;;;;;;;1.80;1.80;;;15.20;99.90;;;;;;4957374;28;20468;-67
2023/08/29 07:00:34;;;;;;;1.77;1.77;;;15.00;99.90;;;;;;4958927;28;20906;-67
2023/08/29 07:03:02;;;;;;;2.40;2.40;;;14.90;99.90;;;;;;4967061;28;20451;-68
2023/08/29 07:05:29;;;;;;;2.83;2.83;;;15.00;99.90;;;;;;4962886;28;20468;-67
2023/08/29 07:07:58;;;;;;;2.60;2.60;;;15.10;99.90;;;;;;4963348;28;20460;-68
2023/08/29 07:10:24;;;;;;;3.00;3.00;;;15.30;99.90;;;;;;4961371;28;20472;-68
2023/08/29 07:12:52;;;;;;;3.27;3.27;;;15.50;99.90;;;;;;4961812;28;20830;-68
2023/08/29 07:15:20;;;;;;;3.20;3.20;;;15.70;99.90;;;;;;4944086;28;20491;-67
2023/08/29 07:17:46;;;;;;;3.00;3.00;;;15.70;99.90;;;;;;4958919;28;20463;-67
2023/08/29 07:20:15;;;;;;;4.07;4.07;;;15.70;99.90;;;;;;4965307;28;20508;-67
2023/08/29 07:22:43;;;;;;;3.80;3.80;;;15.90;99.90;;;;;;4964349;28;20506;-68
2023/08/29 07:25:11;;;;;;;4.00;4.00;;;16.10;99.90;;;;;;4950356;28;20470;-69
2023/08/29 07:27:37;;;;;;;4.20;4.20;;;16.00;99.90;;;;;;4959749;28;20459;-67
2023/08/29 07:30:07;;;;;;;4.07;4.07;;;16.10;99.90;;;;;;4966417;28;20468;-67
2023/08/29 07:32:34;;;;;;;3.90;3.90;;;15.90;99.90;;;;;;4965615;28;20829;-67
2023/08/29 07:35:02;;;;;;;4.50;4.50;;;15.90;99.90;;;;;;4970103;28;20529;-68
2023/08/29 07:37:29;;;;;;;4.03;4.03;;;16.30;99.90;;;;;;4964877;28;21049;-67
2023/08/29 07:39:56;;;;;;;4.30;4.30;;;16.20;99.90;;;;;;4962826;28;20557;-68
2023/08/29 07:42:22;;;;;;;4.90;4.90;;;16.10;99.90;;;;;;4963178;28;20803;-67
2023/08/29 07:44:50;;;;;;;4.90;4.90;;;16.30;99.90;;;;;;4966480;28;20473;-68
2023/08/29 07:47:18;;;;;;;5.20;5.20;;;16.60;99.90;;;;;;4969123;28;20482;-67
2023/08/29 07:49:45;;;;;;;4.90;4.90;;;16.70;99.90;;;;;;4967402;28;20471;-67
2023/08/29 07:52:11;;;;;;;5.47;5.37;;;16.90;99.90;;;;;;4963731;28;20847;-67
2023/08/29 07:54:39;;;;;;;5.40;5.30;;;16.80;99.90;;;;;;4965442;28;20506;-67
2023/08/29 07:57:06;;;;;;;6.00;5.90;;;16.90;99.90;;;;;;4957799;28;20463;-67
2023/08/29 07:59:33;;;;;;;5.80;5.70;;;16.50;99.90;;;;;;4968897;28;20459;-68
2023/08/29 08:02:00;;;;;;;5.80;5.70;;;16.30;99.90;;;;;;4965670;28;20472;-67
2023/08/29 08:04:28;;;;;;;6.27;6.17;;;16.30;99.90;;;;;;4967593;28;20466;-67
2023/08/29 08:06:56;;;;;;;6.07;5.97;;;16.40;99.90;;;;;;4960801;28;20490;-67
2023/08/29 08:09:23;;;;;;;5.40;5.30;;;16.70;99.90;;;;;;4960169;28;20475;-68
2023/08/29 08:11:51;;;;;;;5.83;5.73;;;17.00;99.90;;;;;;4965259;28;20461;-66
2023/08/29 08:14:19;;;;;;;6.10;6.00;;;16.90;99.90;;;;;;4967303;28;21179;-67
2023/08/29 08:16:45;;;;;;;5.90;5.80;;;16.90;99.90;;;;;;4970808;28;20959;-66
2023/08/29 08:19:12;;;;;;;6.40;6.30;;;16.90;99.90;;;;;;4960926;28;20874;-68
2023/08/29 08:21:41;;;;;;;6.50;6.40;;;16.90;99.90;;;;;;4964862;28;20852;-67
2023/08/29 08:24:08;;;;;;;6.70;6.60;;;17.10;99.90;;;;;;4967760;28;20467;-67
2023/08/29 08:26:34;;;;;;;6.80;6.70;;;17.30;99.90;;;;;;4959284;28;20518;-67
2023/08/29 08:29:04;;;;;;;7.30;7.20;;;17.50;99.90;;;;;;4965946;28;20502;-68
2023/08/29 08:31:31;;;;;;;7.20;7.10;;;17.50;99.90;;;;;;4968891;28;20506;-66
2023/08/29 08:33:58;;;;;;;7.50;7.40;;;17.90;99.90;;;;;;4965584;28;20550;-67
2023/08/29 08:36:25;;;;;;;7.73;7.63;;;18.00;99.90;;;;;;4969012;28;20495;-67
2023/08/29 08:38:53;;;;;;;7.80;7.70;;;17.90;99.90;;;;;;4967879;28;20467;-67
2023/08/29 08:41:20;;;;;;;8.33;8.23;;;17.90;99.90;;;;;;4959606;28;20498;-67
2023/08/29 08:43:48;;;;;;;8.50;8.40;;;18.20;99.90;;;;;;4962812;28;20805;-67
2023/08/29 08:46:17;;;;;;;8.80;8.70;;;18.30;99.90;;;;;;4968098;28;20463;-66
2023/08/29 08:48:45;;;;;;;8.50;8.40;;;18.20;99.90;;;;;;4968914;28;20478;-67
2023/08/29 08:51:13;;;;;;;8.50;8.40;;;18.50;99.90;;;;;;4965574;28;20487;-67
2023/08/29 08:53:41;;;;;;;9.50;9.30;;;18.60;99.90;;;;;;4961792;28;20519;-67
2023/08/29 08:56:10;;;;;;;9.70;9.50;;;18.80;99.90;;;;;;4968908;28;20494;-67
2023/08/29 08:58:37;;;;;;;9.43;9.23;;;19.10;99.90;;;;;;4965233;28;20504;-68
2023/08/29 09:01:04;;;;;;;10.10;9.90;;;19.30;99.90;;;;;;4962861;28;20573;-67
2023/08/29 09:03:31;;;;;;;10.30;10.10;;;19.60;99.90;;;;;;4968808;28;20464;-67
2023/08/29 09:05:58;;;;;;;11.10;10.80;;;19.10;99.90;;;;;;4968764;28;20828;-67
2023/08/29 09:08:26;;;;;;;11.20;10.90;;;19.30;99.90;;;;;;4965271;28;20467;-68
2023/08/29 09:10:53;;;;;;;11.70;11.40;;;19.60;99.90;;;;;;4966288;28;20459;-67
2023/08/29 09:13:22;;;;;;;11.60;11.30;;;20.30;99.90;;;;;;4959397;28;20473;-67
2023/08/29 09:15:49;;;;;;;12.47;12.17;;;21.20;99.90;;;;;;4971350;28;20494;-69
2023/08/29 09:18:24;;;;;;;13.10;12.70;;;21.80;99.90;;;;;;4965943;28;20475;-67
2023/08/29 09:20:52;;;;;;;13.83;13.43;;;22.10;99.90;;;;;;4968215;28;20473;-67
2023/08/29 09:23:23;;;;;;;13.37;12.97;;;22.00;99.90;;;;;;4965842;28;20564;-67
2023/08/29 09:25:54;;;;;;;13.30;12.90;;;21.50;99.90;;;;;;4965591;28;20581;-68
2023/08/29 09:28:22;;;;;;;13.97;13.57;;;22.20;99.90;;;;;;4945648;28;20456;-67
2023/08/29 09:30:49;;;;;;;13.73;13.33;;;22.20;99.90;;;;;;4958287;28;20698;-67
2023/08/29 09:33:21;;;;;;;13.87;13.47;;;22.00;99.90;;;;;;4966910;28;20873;-66
2023/08/29 09:35:49;;;;;;;13.80;13.40;;;21.90;99.90;;;;;;4967508;28;21098;-68
2023/08/29 09:38:18;;;;;;;13.40;13.00;;;22.30;99.90;;;;;;4965342;28;20966;-66
2023/08/29 09:40:49;;;;;;;13.43;13.03;;;22.30;99.90;;;;;;4956205;28;20802;-68
2023/08/29 09:43:17;;;;;;;13.60;13.20;;;22.00;99.90;;;;;;4967455;28;20853;-66
2023/08/29 09:45:50;;;;;;;13.13;12.73;;;21.90;99.90;;;;;;4970849;28;20673;-67
2023/08/29 09:48:18;;;;;;;13.00;12.60;;;22.00;99.90;;;;;;4965322;28;20563;-67
2023/08/29 09:50:48;;;;;;;13.27;12.87;;;22.00;99.90;;;;;;4963373;28;20554;-67
2023/08/29 09:53:16;;;;;;;13.30;12.90;;;22.20;99.90;;;;;;4961123;28;20813;-67
2023/08/29 09:55:46;;;;;;;13.60;13.20;;;22.50;99.90;;;;;;4963232;28;20507;-68
2023/08/29 09:58:14;;;;;;;13.10;12.70;;;22.80;99.90;;;;;;4962992;28;20959;-67
2023/08/29 10:00:42;;;;;;;13.20;12.80;;;23.00;99.90;;;;;;4964777;28;20455;-67
2023/08/29 10:03:12;;;;;;;13.20;12.80;;;23.40;99.90;;;;;;4967585;28;20469;-67
2023/08/29 10:05:43;;;;;;;12.73;12.40;;;23.60;99.90;;;;;;4961411;28;20997;-67
2023/08/29 10:08:18;;;;;;;13.10;12.70;;;23.90;99.90;;;;;;4963556;28;20468;-67
2023/08/29 10:10:45;;;;;;;13.00;12.60;;;23.30;99.90;;;;;;4965425;28;20989;-69
2023/08/29 10:13:12;;;;;;;12.50;12.20;;;23.20;99.90;;;;;;4951962;28;20476;-68
2023/08/29 10:15:46;;;;;;;12.90;12.60;;;22.40;99.90;;;;;;4961330;28;20883;-67
2023/08/29 10:18:14;;;;;;;12.47;12.17;;;22.50;99.90;;;;;;4967352;28;20570;-68
2023/08/29 10:20:44;;;;;;;12.30;12.00;;;22.70;99.90;;;;;;4966190;28;20510;-68
2023/08/29 10:23:13;;;;;;;12.30;12.00;;;22.90;99.90;;;;;;4962146;28;20522;-68
2023/08/29 10:25:41;;;;;;;12.60;12.30;;;23.30;99.90;;;;;;4965414;28;20510;-68
2023/08/29 10:28:10;;;;;;;12.20;11.90;;;23.90;99.90;;;;;;4958161;28;20471;-69
2023/08/29 10:30:40;;;;;;;12.30;12.00;;;24.20;99.90;;;;;;4958002;28;20554;-68
2023/08/29 10:33:08;;;;;;;12.10;11.80;;;23.90;99.90;;;;;;4965324;28;20470;-68
2023/08/29 10:35:36;;;;;;;12.63;12.33;;;24.00;99.90;;;;;;4963187;28;20971;-70
2023/08/29 10:38:08;;;;;;;12.50;12.20;;;23.90;99.90;;;;;;4963086;28;20554;-67
2023/08/29 10:40:36;;;;;;;13.30;12.90;;;24.40;99.90;;;;;;4961403;28;20471;-68
2023/08/29 10:43:04;;;;;;;12.83;12.53;;;24.40;99.90;;;;;;4959573;28;20994;-68
2023/08/29 10:45:50;;;;;;;12.60;12.30;;;24.10;99.90;;;;;;4966128;28;20533;-69
2023/08/29 10:48:18;;;;;;;13.40;13.00;;;25.00;99.90;;;;;;4958520;28;20859;-69
2023/08/29 10:50:49;;;;;;;12.80;12.50;;;25.80;99.90;;;;;;4964299;28;20859;-67
2023/08/29 10:53:20;;;;;;;12.97;12.67;;;26.20;99.90;;;;;;4957241;28;20544;-69
2023/08/29 10:56:02;;;;;;;13.20;12.87;;;26.00;99.90;;;;;;4959412;28;20541;-67
2023/08/29 10:58:35;;;;;;;13.50;13.10;;;26.00;99.90;;;;;;4967410;28;20463;-67
2023/08/29 11:01:02;;;;;;;12.50;12.20;;;25.90;99.90;;;;;;4963130;28;20566;-67
2023/08/29 11:03:45;;;;;;;13.97;13.57;;;25.90;99.90;;;;;;4966428;28;20455;-67
2023/08/29 11:06:14;;;;;;;13.60;13.20;;;25.90;99.90;;;;;;4956716;28;20464;-67
2023/08/29 11:08:41;;;;;;;13.67;13.27;;;26.00;99.90;;;;;;4955427;28;20521;-66
2023/08/29 11:11:16;;;;;;;13.30;12.90;;;25.90;99.90;;;;;;4962151;28;20837;-66
2023/08/29 11:13:57;;;;;;;12.93;12.63;;;25.00;99.90;;;;;;4964039;28;20843;-67
2023/08/29 11:16:24;;;;;;;13.03;12.70;;;24.40;99.90;;;;;;4964751;28;20482;-66
2023/08/29 11:19:05;;;;;;;12.90;12.60;;;23.80;99.90;;;;;;4967446;28;20545;-68
2023/08/29 11:21:34;;;;;;;13.70;13.30;;;23.50;99.90;;;;;;4967412;28;20530;-67
2023/08/29 11:24:01;;;;;;;13.33;12.93;;;24.00;99.90;;;;;;4961007;28;20506;-68
2023/08/29 11:26:29;;;;;;;13.33;12.93;;;24.40;99.90;;;;;;4965777;28;20486;-66
2023/08/29 11:28:56;;;;;;;12.93;12.63;;;24.70;99.90;;;;;;4962469;28;20723;-68
2023/08/29 11:31:24;;;;;;;13.53;13.13;;;25.40;99.90;;;;;;4963749;28;20469;-67
2023/08/29 11:33:51;;;;;;;13.30;12.90;;;26.00;99.90;;;;;;4961050;28;20599;-67
2023/08/29 11:36:18;;;;;;;13.90;13.50;;;25.70;99.90;;;;;;4970694;28;20661;-66
2023/08/29 11:38:46;;;;;;;12.97;12.67;;;25.70;99.90;;;;;;4968904;28;20475;-68
2023/08/29 11:41:14;;;;;;;13.40;13.00;;;25.60;99.90;;;;;;4957603;28;20864;-67
2023/08/29 11:43:41;;;;;;;13.33;12.93;;;25.60;99.90;;;;;;4966349;28;20957;-68
2023/08/29 11:46:09;;;;;;;13.30;12.90;;;26.10;99.90;;;;;;4972620;28;20467;-67
2023/08/29 11:48:36;;;;;;;14.07;13.67;;;26.90;99.90;;;;;;4960366;28;20475;-67
2023/08/29 11:51:04;;;;;;;13.27;12.87;;;27.10;99.90;;;;;;4960961;28;20468;-66
2023/08/29 11:53:33;;;;;;;14.00;13.60;;;27.00;99.90;;;;;;4968578;28;20491;-68
2023/08/29 11:56:03;;;;;;;13.90;13.50;;;26.30;99.90;;;;;;4970021;28;20565;-67
2023/08/29 11:58:30;;;;;;;13.97;13.57;;;26.40;99.90;;;;;;4969614;28;20455;-68
2023/08/29 12:00:57;;;;;;;13.57;13.17;;;26.10;99.90;;;;;;4966775;28;20468;-66
2023/08/29 12:03:26;;;;;;;13.23;12.83;;;25.70;99.90;;;;;;4964204;28;20475;-67
2023/08/29 12:05:56;;;;;;;13.40;13.00;;;25.30;99.90;;;;;;4961005;28;20483;-67
2023/08/29 12:08:38;;;;;;;13.80;13.40;;;24.70;99.90;;;;;;4968597;28;20550;-66
2023/08/29 12:11:07;;;;;;;13.23;12.83;;;24.20;99.90;;;;;;4961436;28;20987;-66
2023/08/29 12:13:34;;;;;;;13.43;13.03;;;23.70;99.90;;;;;;4968841;28;20460;-68
2023/08/29 12:16:02;;;;;;;13.20;12.80;;;23.00;99.90;;;;;;4966036;28;20835;-67
2023/08/29 12:18:32;;;;;;;13.77;13.37;;;23.00;99.90;;;;;;4969470;28;20456;-67
2023/08/29 12:21:16;;;;;;;13.43;13.03;;;22.60;99.90;;;;;;4964839;28;20511;-66
2023/08/29 12:23:43;;;;;;;13.40;13.00;;;22.30;99.90;;;;;;4955323;28;20460;-67
2023/08/29 12:26:14;;;;;;;13.50;13.10;;;22.00;99.90;;;;;;4963336;28;20813;-67
2023/08/29 12:28:42;;;;;;;12.87;12.57;;;21.90;99.90;;;;;;4961807;28;20467;-67
2023/08/29 12:31:09;;;;;;;13.20;12.80;;;21.70;99.90;;;;;;4961513;28;20459;-67
2023/08/29 12:33:36;;;;;;;13.40;13.00;;;21.60;99.90;;;;;;4960704;28;20503;-67
2023/08/29 12:36:04;;;;;;;12.70;12.40;;;21.50;99.90;;;;;;4969688;28;20568;-67
2023/08/29 12:38:31;;;;;;;13.43;13.03;;;21.30;99.90;;;;;;4963415;28;21165;-67
2023/08/29 12:40:58;;;;;;;12.90;12.50;;;21.00;99.90;;;;;;4967737;28;20831;-67
2023/08/29 12:43:27;;;;;;;12.80;12.40;;;21.00;99.90;;;;;;4963791;28;20467;-67
2023/08/29 12:45:53;;;;;;;12.60;12.30;;;21.00;99.90;;;;;;4970796;28;20464;-67